Time;durP1;ratioP1;P1;durP2;ratioP2;P2;SDS_P1;SDS_P2;PMS_P1;PMS_P2;Temp;Humidity;BMP_temperature;BMP_pressure;BME280_temperature;BME280_humidity;BME280_pressure;Samples;Min_cycle;Max_cycle;Signal;HPM_P1;HPM_P2
2021/01/15 00:00:15;;;;;;;;;;;;;;;;;;5015842;28;20011;-68
2021/01/15 00:02:41;;;;;;;;;;;;;;;;;;5016198;28;20291;-68
2021/01/15 00:05:08;;;;;;;;;;;;;;;;;;5016681;28;19925;-67
2021/01/15 00:07:34;;;;;;;;;;;;;;;;;;5015496;28;19925;-67
2021/01/15 00:10:01;;;;;;;;;;;;;;;;;;5005092;28;19927;-68
2021/01/15 00:12:27;;;;;;;;;;;;;;;;;;5015077;28;20338;-67
2021/01/15 00:14:54;;;;;;;;;;;;;;;;;;5015902;28;19956;-68
2021/01/15 00:17:20;;;;;;;;;;;;;;;;;;5015638;28;20407;-68
2021/01/15 00:19:47;;;;;;;;;;;;;;;;;;5015436;28;19925;-67
2021/01/15 00:22:13;;;;;;;;;;;;;;;;;;5015234;28;19929;-68
2021/01/15 00:24:40;;;;;;;;;;;;;;;;;;5015078;28;19926;-68
2021/01/15 00:27:06;;;;;;;;;;;;;;;;;;5014260;28;19987;-68
2021/01/15 00:29:33;;;;;;;;;;;;;;;;;;5014779;28;20319;-66
2021/01/15 00:31:59;;;;;;;;;;;;;;;;;;5015225;28;19932;-67
2021/01/15 00:34:26;;;;;;;;;;;;;;;;;;5005710;28;19929;-67
2021/01/15 00:36:52;;;;;;;;;;;;;;;;;;5014972;28;20330;-67
2021/01/15 00:39:19;;;;;;;;;;;;;;;;;;5014578;28;19925;-67
2021/01/15 00:41:45;;;;;;;;;;;;;;;;;;5014524;28;19925;-67
2021/01/15 00:44:12;;;;;;;;;;;;;;;;;;5009685;28;20453;-68
2021/01/15 00:46:45;;;;;;;;;;;;;;;;;;5014652;28;20007;-67
2021/01/15 00:49:12;;;;;;;;;;;;;;;;;;5014413;28;19926;-67
2021/01/15 00:51:38;;;;;;;;;;;;;;;;;;5014054;28;19925;-67
2021/01/15 00:54:05;;;;;;;;;;;;;;;;;;5014678;28;19947;-67
2021/01/15 00:56:31;;;;;;;;;;;;;;;;;;5014706;28;19925;-67
2021/01/15 00:58:57;;;;;;;;;;;;;;;;;;5014895;28;20388;-66
2021/01/15 01:01:24;;;;;;;;;;;;;;;;;;5013446;28;19930;-67
2021/01/15 01:03:50;;;;;;;;;;;;;;;;;;5013754;28;19933;-67
2021/01/15 01:06:17;;;;;;;;;;;;;;;;;;5014371;28;19972;-67
2021/01/15 01:08:43;;;;;;;;;;;;;;;;;;5013258;28;19930;-67
2021/01/15 01:11:10;;;;;;;;;;;;;;;;;;5014113;28;19926;-67
2021/01/15 01:13:36;;;;;;;;;;;;;;;;;;5010851;28;20303;-67
2021/01/15 01:16:03;;;;;;;;;;;;;;;;;;5013933;28;19941;-67
2021/01/15 01:18:29;;;;;;;;;;;;;;;;;;5013136;28;20012;-67
2021/01/15 01:20:56;;;;;;;;;;;;;;;;;;5013827;28;19929;-66
2021/01/15 01:23:22;;;;;;;;;;;;;;;;;;5014284;28;20295;-67
2021/01/15 01:25:49;;;;;;;;;;;;;;;;;;5013872;28;19931;-66
2021/01/15 01:28:17;;;;;;;;;;;;;;;;;;5012935;28;20371;-67
2021/01/15 01:30:43;;;;;;;;;;;;;;;;;;5012486;28;19960;-68
2021/01/15 01:33:10;;;;;;;;;;;;;;;;;;5014318;28;19932;-67
2021/01/15 01:35:36;;;;;;;;;;;;;;;;;;5014286;28;19929;-67
2021/01/15 01:38:03;;;;;;;;;;;;;;;;;;5013647;28;19948;-66
2021/01/15 01:40:29;;;;;;;;;;;;;;;;;;5013994;28;19932;-68
2021/01/15 01:42:56;;;;;;;;;;;;;;;;;;5013987;28;20430;-66
2021/01/15 01:45:22;;;;;;;;;;;;;;;;;;5013921;28;19959;-67
2021/01/15 01:47:48;;;;;;;;;;;;;;;;;;5013279;28;19926;-68
2021/01/15 01:50:15;;;;;;;;;;;;;;;;;;5014304;28;20542;-67
2021/01/15 01:52:41;;;;;;;;;;;;;;;;;;5013501;28;19931;-67
2021/01/15 01:55:08;;;;;;;;;;;;;;;;;;5013716;28;19925;-67
2021/01/15 01:57:34;;;;;;;;;;;;;;;;;;5013242;28;19925;-67
2021/01/15 02:00:01;;;;;;;;;;;;;;;;;;5013361;28;19926;-67
2021/01/15 02:02:27;;;;;;;;;;;;;;;;;;5012334;28;19979;-66
2021/01/15 02:04:54;;;;;;;;;;;;;;;;;;5011662;28;20375;-67
2021/01/15 02:07:20;;;;;;;;;;;;;;;;;;5012883;28;19925;-64
2021/01/15 02:09:47;;;;;;;;;;;;;;;;;;5010644;28;19932;-64
2021/01/15 02:12:13;;;;;;;;;;;;;;;;;;5007173;28;19937;-64
2021/01/15 02:14:40;;;;;;;;;;;;;;;;;;5013214;28;19988;-64
2021/01/15 02:17:06;;;;;;;;;;;;;;;;;;5012869;28;20385;-67
2021/01/15 02:19:33;;;;;;;;;;;;;;;;;;5013323;28;19929;-66
2021/01/15 02:21:59;;;;;;;;;;;;;;;;;;5010132;28;19931;-66
2021/01/15 02:24:26;;;;;;;;;;;;;;;;;;5013137;28;20331;-66
2021/01/15 02:26:52;;;;;;;;;;;;;;;;;;5011830;28;19987;-67
2021/01/15 02:29:19;;;;;;;;;;;;;;;;;;5012438;28;19926;-67
2021/01/15 02:31:45;;;;;;;;;;;;;;;;;;5004328;28;19925;-67
2021/01/15 02:34:12;;;;;;;;;;;;;;;;;;5013685;28;20295;-67
2021/01/15 02:36:38;;;;;;;;;;;;;;;;;;5011954;28;19925;-67
2021/01/15 02:39:04;;;;;;;;;;;;;;;;;;5012169;28;19925;-66
2021/01/15 02:41:31;;;;;;;;;;;;;;;;;;5012951;28;20441;-67
2021/01/15 02:43:57;;;;;;;;;;;;;;;;;;5012597;28;19925;-68
2021/01/15 02:46:24;;;;;;;;;;;;;;;;;;5012547;28;19933;-68
2021/01/15 02:48:50;;;;;;;;;;;;;;;;;;5012563;28;20284;-66
2021/01/15 02:51:17;;;;;;;;;;;;;;;;;;5011801;28;19925;-67
2021/01/15 02:53:43;;;;;;;;;;;;;;;;;;5012710;28;19952;-67
2021/01/15 02:56:10;;;;;;;;;;;;;;;;;;5012444;28;19929;-67
2021/01/15 02:58:36;;;;;;;;;;;;;;;;;;5011453;28;19932;-66
2021/01/15 03:01:03;;;;;;;;;;;;;;;;;;5006271;28;19933;-67
2021/01/15 03:03:29;;;;;;;;;;;;;;;;;;5012362;28;19929;-67
2021/01/15 03:05:56;;;;;;;;;;;;;;;;;;5009786;28;19936;-67
2021/01/15 03:08:22;;;;;;;;;;;;;;;;;;5012711;28;19932;-67
2021/01/15 03:10:49;;;;;;;;;;;;;;;;;;5011604;28;19926;-66
2021/01/15 03:13:15;;;;;;;;;;;;;;;;;;5012398;28;19932;-66
2021/01/15 03:15:42;;;;;;;;;;;;;;;;;;5012800;28;20303;-67
2021/01/15 03:18:08;;;;;;;;;;;;;;;;;;5003895;28;19933;-67
2021/01/15 03:20:34;;;;;;;;;;;;;;;;;;5010760;28;19925;-67
2021/01/15 03:23:01;;;;;;;;;;;;;;;;;;5012348;28;19988;-67
2021/01/15 03:25:27;;;;;;;;;;;;;;;;;;5013143;28;19971;-66
2021/01/15 03:27:54;;;;;;;;;;;;;;;;;;5012896;28;20299;-67
2021/01/15 03:30:20;;;;;;;;;;;;;;;;;;5013286;28;19932;-67
2021/01/15 03:32:47;;;;;;;;;;;;;;;;;;5013736;28;20299;-68
2021/01/15 03:35:23;;;;;;;;;;;;;;;;;;5012471;28;19984;-67
2021/01/15 03:37:49;;;;;;;;;;;;;;;;;;5012144;28;20021;-67
2021/01/15 03:40:16;;;;;;;;;;;;;;;;;;5011385;28;19941;-67
2021/01/15 03:42:42;;;;;;;;;;;;;;;;;;5011516;28;19925;-67
2021/01/15 03:45:09;;;;;;;;;;;;;;;;;;5012202;28;19929;-67
2021/01/15 03:47:35;;;;;;;;;;;;;;;;;;5011428;28;19926;-67
2021/01/15 03:50:01;;;;;;;;;;;;;;;;;;5012128;28;19925;-67
2021/01/15 03:52:28;;;;;;;;;;;;;;;;;;5011822;28;19925;-67
2021/01/15 03:54:54;;;;;;;;;;;;;;;;;;5011561;28;19949;-67
2021/01/15 03:57:21;;;;;;;;;;;;;;;;;;5011908;28;19980;-68
2021/01/15 03:59:47;;;;;;;;;;;;;;;;;;5011240;28;19925;-67
2021/01/15 04:02:14;;;;;;;;;;;;;;;;;;5011209;28;20394;-67
2021/01/15 04:04:41;;;;;;;;;;;;;;;;;;5012108;28;19925;-66
2021/01/15 04:07:08;;;;;;;;;;;;;;;;;;5003660;28;20007;-67
2021/01/15 04:09:34;;;;;;;;;;;;;;;;;;5011836;28;20407;-67
2021/01/15 04:12:00;;;;;;;;;;;;;;;;;;5010747;28;19932;-66
2021/01/15 04:14:27;;;;;;;;;;;;;;;;;;5005140;28;19941;-66
2021/01/15 04:16:53;;;;;;;;;;;;;;;;;;5011395;28;19929;-68
2021/01/15 04:19:20;;;;;;;;;;;;;;;;;;5011443;28;19971;-68
2021/01/15 04:21:46;;;;;;;;;;;;;;;;;;5010504;28;19925;-67
2021/01/15 04:24:13;;;;;;;;;;;;;;;;;;5011475;28;19929;-67
2021/01/15 04:26:39;;;;;;;;;;;;;;;;;;5013097;28;19931;-67
2021/01/15 04:29:06;;;;;;;;;;;;;;;;;;5014652;28;19926;-67
2021/01/15 04:31:32;;;;;;;;;;;;;;;;;;5013534;28;20138;-68
2021/01/15 04:33:59;;;;;;;;;;;;;;;;;;5012212;28;20337;-67
2021/01/15 04:36:26;;;;;;;;;;;;;;;;;;5013855;28;19926;-66
2021/01/15 04:38:53;;;;;;;;;;;;;;;;;;5014743;28;19929;-65
2021/01/15 04:41:19;;;;;;;;;;;;;;;;;;5014606;28;19965;-65
2021/01/15 04:43:46;;;;;;;;;;;;;;;;;;5014610;28;19932;-65
2021/01/15 04:46:12;;;;;;;;;;;;;;;;;;5015042;28;19929;-66
2021/01/15 04:48:39;;;;;;;;;;;;;;;;;;5014757;28;20276;-65
2021/01/15 04:51:05;;;;;;;;;;;;;;;;;;5006929;28;19926;-65
2021/01/15 04:53:32;;;;;;;;;;;;;;;;;;5013749;28;19931;-65
2021/01/15 04:55:58;;;;;;;;;;;;;;;;;;5014542;28;19932;-65
2021/01/15 04:58:25;;;;;;;;;;;;;;;;;;5014132;28;19932;-66
2021/01/15 05:00:51;;;;;;;;;;;;;;;;;;5013682;28;19925;-67
2021/01/15 05:03:18;;;;;;;;;;;;;;;;;;5014060;28;20303;-66
2021/01/15 05:05:44;;;;;;;;;;;;;;;;;;5014138;28;19971;-65
2021/01/15 05:08:11;;;;;;;;;;;;;;;;;;5014150;28;20175;-66
2021/01/15 05:10:37;;;;;;;;;;;;;;;;;;5011147;28;20406;-66
2021/01/15 05:13:04;;;;;;;;;;;;;;;;;;5011618;28;19995;-65
2021/01/15 05:15:30;;;;;;;;;;;;;;;;;;5014220;28;19925;-66
2021/01/15 05:17:57;;;;;;;;;;;;;;;;;;5013514;28;20343;-65
2021/01/15 05:20:23;;;;;;;;;;;;;;;;;;5014759;28;19929;-65
2021/01/15 05:22:49;;;;;;;;;;;;;;;;;;5013515;28;19929;-65
2021/01/15 05:25:16;;;;;;;;;;;;;;;;;;5013819;28;19929;-66
2021/01/15 05:27:42;;;;;;;;;;;;;;;;;;5008209;28;20294;-65
2021/01/15 05:30:09;;;;;;;;;;;;;;;;;;5014392;28;20021;-65
2021/01/15 05:32:36;;;;;;;;;;;;;;;;;;5012561;28;19984;-66
2021/01/15 05:35:02;;;;;;;;;;;;;;;;;;5014037;28;19948;-66
2021/01/15 05:37:29;;;;;;;;;;;;;;;;;;5011619;28;19938;-66
2021/01/15 05:39:55;;;;;;;;;;;;;;;;;;5013879;28;20302;-65
2021/01/15 05:42:21;;;;;;;;;;;;;;;;;;5013684;28;19929;-66
2021/01/15 05:44:48;;;;;;;;;;;;;;;;;;5012977;28;19932;-66
2021/01/15 05:47:14;;;;;;;;;;;;;;;;;;5013612;28;19933;-65
2021/01/15 05:49:41;;;;;;;;;;;;;;;;;;5014842;28;19932;-65
2021/01/15 05:52:07;;;;;;;;;;;;;;;;;;5008494;28;20351;-65
2021/01/15 05:54:34;;;;;;;;;;;;;;;;;;5013590;28;19988;-66
2021/01/15 05:57:00;;;;;;;;;;;;;;;;;;5009860;28;19930;-67
2021/01/15 05:59:27;;;;;;;;;;;;;;;;;;5008047;28;20311;-66
2021/01/15 06:01:54;;;;;;;;;;;;;;;;;;5017177;28;20330;-65
2021/01/15 06:04:20;;;;;;;;;;;;;;;;;;5013592;28;19984;-65
2021/01/15 06:06:47;;;;;;;;;;;;;;;;;;5013130;28;19925;-66
2021/01/15 06:09:13;;;;;;;;;;;;;;;;;;5013373;28;19979;-66
2021/01/15 06:11:40;;;;;;;;;;;;;;;;;;5012515;28;19947;-66
2021/01/15 06:14:06;;;;;;;;;;;;;;;;;;5013345;28;19932;-66
2021/01/15 06:16:33;;;;;;;;;;;;;;;;;;5012214;28;19963;-66
2021/01/15 06:18:59;;;;;;;;;;;;;;;;;;5012116;28;20407;-67
2021/01/15 06:21:26;;;;;;;;;;;;;;;;;;5013373;28;19936;-66
2021/01/15 06:23:52;;;;;;;;;;;;;;;;;;5012583;28;19930;-65
2021/01/15 06:26:19;;;;;;;;;;;;;;;;;;5012865;28;19925;-66
2021/01/15 06:28:45;;;;;;;;;;;;;;;;;;5012822;28;19925;-66
2021/01/15 06:31:12;;;;;;;;;;;;;;;;;;5010866;28;20473;-67
2021/01/15 06:33:38;;;;;;;;;;;;;;;;;;5012272;28;19935;-65
2021/01/15 06:36:05;;;;;;;;;;;;;;;;;;5013302;28;19932;-66
2021/01/15 06:38:31;;;;;;;;;;;;;;;;;;5013556;28;19925;-67
2021/01/15 06:40:58;;;;;;;;;;;;;;;;;;5013036;28;20403;-68
2021/01/15 06:43:25;;;;;;;;;;;;;;;;;;5011342;28;19929;-67
2021/01/15 06:45:52;;;;;;;;;;;;;;;;;;5009543;28;19929;-67
2021/01/15 06:48:22;;;;;;;;;;;;;;;;;;5013651;28;19925;-67
2021/01/15 06:50:48;;;;;;;;;;;;;;;;;;5012041;28;19948;-67
2021/01/15 06:53:15;;;;;;;;;;;;;;;;;;5004318;28;19932;-68
2021/01/15 06:55:41;;;;;;;;;;;;;;;;;;5011346;28;20360;-67
2021/01/15 06:58:08;;;;;;;;;;;;;;;;;;5012783;28;19929;-67
2021/01/15 07:00:34;;;;;;;;;;;;;;;;;;5012453;28;19932;-67
2021/01/15 07:03:01;;;;;;;;;;;;;;;;;;5011956;28;19935;-68
2021/01/15 07:05:27;;;;;;;;;;;;;;;;;;5013256;28;20308;-67
2021/01/15 07:07:54;;;;;;;;;;;;;;;;;;5012028;28;19926;-68
2021/01/15 07:10:20;;;;;;;;;;;;;;;;;;5018694;28;19925;-68
2021/01/15 07:12:46;;;;;;;;;;;;;;;;;;5011834;28;19947;-69
2021/01/15 07:15:13;;;;;;;;;;;;;;;;;;5008530;28;19936;-68
2021/01/15 07:17:40;;;;;;;;;;;;;;;;;;5012088;28;19933;-67
2021/01/15 07:20:06;;;;;;;;;;;;;;;;;;5011899;28;20457;-68
2021/01/15 07:22:33;;;;;;;;;;;;;;;;;;5012488;28;19933;-68
2021/01/15 07:24:59;;;;;;;;;;;;;;;;;;5014215;28;19925;-65
2021/01/15 07:27:26;;;;;;;;;;;;;;;;;;5011984;28;19929;-67
2021/01/15 07:29:52;;;;;;;;;;;;;;;;;;5011735;28;19984;-67
2021/01/15 07:32:19;;;;;;;;;;;;;;;;;;5010311;28;20391;-67
2021/01/15 07:34:46;;;;;;;;;;;;;;;;;;5008182;28;19929;-68
2021/01/15 07:37:12;;;;;;;;;;;;;;;;;;5011125;28;20051;-69
2021/01/15 07:39:39;;;;;;;;;;;;;;;;;;5009107;28;19940;-68
2021/01/15 07:42:05;;;;;;;;;;;;;;;;;;5008493;28;20171;-68
2021/01/15 07:44:32;;;;;;;;;;;;;;;;;;5010574;28;20360;-69
2021/01/15 07:46:58;;;;;;;;;;;;;;;;;;5010107;28;20016;-68
2021/01/15 07:49:25;;;;;;;;;;;;;;;;;;5009081;28;20015;-68
2021/01/15 07:51:51;;;;;;;;;;;;;;;;;;5011232;28;19925;-67
2021/01/15 07:54:18;;;;;;;;;;;;;;;;;;5012313;28;19933;-69
2021/01/15 07:56:44;;;;;;;;;;;;;;;;;;5007715;28;19926;-68
2021/01/15 07:59:11;;;;;;;;;;;;;;;;;;5009618;28;20273;-69
2021/01/15 08:01:37;;;;;;;;;;;;;;;;;;5012963;28;20302;-67
2021/01/15 08:04:04;;;;;;;;;;;;;;;;;;5007054;28;20124;-67
2021/01/15 08:06:30;;;;;;;;;;;;;;;;;;5014009;28;19926;-67
2021/01/15 08:08:58;;;;;;;;;;;;;;;;;;5015750;28;19926;-67
2021/01/15 08:11:24;;;;;;;;;;;;;;;;;;5014695;28;19929;-68
2021/01/15 08:13:51;;;;;;;;;;;;;;;;;;5015966;28;20009;-67
2021/01/15 08:16:17;;;;;;;;;;;;;;;;;;5012616;28;19979;-69
2021/01/15 08:18:44;;;;;;;;;;;;;;;;;;5014076;28;19926;-68
2021/01/15 08:21:11;;;;;;;;;;;;;;;;;;5009788;28;19926;-69
2021/01/15 08:23:37;;;;;;;;;;;;;;;;;;5017307;28;19979;-68
2021/01/15 08:26:04;;;;;;;;;;;;;;;;;;5013050;28;19933;-68
2021/01/15 08:28:30;;;;;;;;;;;;;;;;;;5016316;28;19925;-68
2021/01/15 08:30:57;;;;;;;;;;;;;;;;;;5018363;28;19925;-71
2021/01/15 08:33:23;;;;;;;;;;;;;;;;;;5014445;28;19933;-68
2021/01/15 08:35:50;;;;;;;;;;;;;;;;;;5018261;28;19929;-68
2021/01/15 08:38:16;;;;;;;;;;;;;;;;;;5024903;28;19929;-69
2021/01/15 08:40:43;;;;;;;;;;;;;;;;;;5014194;28;20295;-69
2021/01/15 08:43:09;;;;;;;;;;;;;;;;;;5013308;28;19981;-69
2021/01/15 08:45:36;;;;;;;;;;;;;;;;;;5007939;28;19926;-68
2021/01/15 08:48:02;;;;;;;;;;;;;;;;;;5010566;28;19929;-69
2021/01/15 08:50:29;;;;;;;;;;;;;;;;;;5014201;28;19925;-73
2021/01/15 08:52:55;;;;;;;;;;;;;;;;;;5022234;28;20015;-72
2021/01/15 08:55:22;;;;;;;;;;;;;;;;;;5015244;28;20340;-68
2021/01/15 08:57:48;;;;;;;;;;;;;;;;;;5022236;28;20343;-67
2021/01/15 09:00:15;;;;;;;;;;;;;;;;;;5014518;28;19925;-74
2021/01/15 09:02:41;;;;;;;;;;;;;;;;;;5018875;28;19979;-70
2021/01/15 09:05:08;;;;;;;;;;;;;;;;;;5004694;28;19939;-70
2021/01/15 09:07:34;;;;;;;;;;;;;;;;;;5011070;28;20016;-70
2021/01/15 09:10:01;;;;;;;;;;;;;;;;;;5018450;28;20406;-70
2021/01/15 09:12:27;;;;;;;;;;;;;;;;;;5014368;28;19979;-70
2021/01/15 09:14:54;;;;;;;;;;;;;;;;;;5014257;28;19952;-70
2021/01/15 09:17:20;;;;;;;;;;;;;;;;;;5012694;28;19994;-69
2021/01/15 09:19:47;;;;;;;;;;;;;;;;;;5014595;28;19961;-70
2021/01/15 09:22:17;;;;;;;;;;;;;;;;;;5013784;28;19925;-70
2021/01/15 09:24:44;;;;;;;;;;;;;;;;;;5018536;28;19925;-69
2021/01/15 09:27:10;;;;;;;;;;;;;;;;;;5018049;28;20387;-70
2021/01/15 09:29:38;;;;;;;;;;;;;;;;;;5011437;28;19925;-69
2021/01/15 09:32:05;;;;;;;;;;;;;;;;;;5012258;28;19925;-69
2021/01/15 09:34:31;;;;;;;;;;;;;;;;;;5013958;28;19941;-70
2021/01/15 09:36:57;;;;;;;;;;;;;;;;;;5009571;28;19925;-69
2021/01/15 09:39:24;;;;;;;;;;;;;;;;;;5011370;28;20436;-69
2021/01/15 09:41:50;;;;;;;;;;;;;;;;;;5012596;28;20398;-71
2021/01/15 09:44:17;;;;;;;;;;;;;;;;;;5014175;28;20028;-72
2021/01/15 09:46:43;;;;;;;;;;;;;;;;;;5007818;28;19925;-70
2021/01/15 09:49:10;;;;;;;;;;;;;;;;;;5013247;28;19926;-70
2021/01/15 09:51:36;;;;;;;;;;;;;;;;;;5012317;28;19925;-69
2021/01/15 09:54:03;;;;;;;;;;;;;;;;;;5013541;28;19952;-69
2021/01/15 09:56:29;;;;;;;;;;;;;;;;;;5012313;28;19927;-71
2021/01/15 09:58:56;;;;;;;;;;;;;;;;;;5011989;28;19951;-69
2021/01/15 10:01:22;;;;;;;;;;;;;;;;;;5013166;28;19990;-70
2021/01/15 10:03:49;;;;;;;;;;;;;;;;;;5013295;28;20051;-69
2021/01/15 10:06:15;;;;;;;;;;;;;;;;;;5005916;28;20020;-71
2021/01/15 10:08:43;;;;;;;;;;;;;;;;;;5015673;28;19964;-69
2021/01/15 10:11:09;;;;;;;;;;;;;;;;;;5013101;28;19960;-69
2021/01/15 10:13:36;;;;;;;;;;;;;;;;;;5008950;28;20725;-69
2021/01/15 10:16:02;;;;;;;;;;;;;;;;;;5013805;28;19982;-69
2021/01/15 10:18:29;;;;;;;;;;;;;;;;;;5011427;28;19983;-69
2021/01/15 10:20:55;;;;;;;;;;;;;;;;;;5014108;28;19925;-68
2021/01/15 10:23:22;;;;;;;;;;;;;;;;;;5017364;28;19925;-68
2021/01/15 10:25:49;;;;;;;;;;;;;;;;;;5014682;28;19942;-68
2021/01/15 10:28:15;;;;;;;;;;;;;;;;;;5008995;28;19931;-68
2021/01/15 10:30:42;;;;;;;;;;;;;;;;;;5016536;28;20387;-70
2021/01/15 10:33:08;;;;;;;;;;;;;;;;;;5014786;28;19925;-69
2021/01/15 10:35:35;;;;;;;;;;;;;;;;;;5009379;28;20339;-68
2021/01/15 10:38:01;;;;;;;;;;;;;;;;;;5012264;28;19929;-69
2021/01/15 10:40:28;;;;;;;;;;;;;;;;;;5015325;28;19987;-68
2021/01/15 10:42:54;;;;;;;;;;;;;;;;;;5011163;28;19981;-71
2021/01/15 10:45:21;;;;;;;;;;;;;;;;;;5012565;28;19939;-69
2021/01/15 10:47:47;;;;;;;;;;;;;;;;;;5009908;28;19975;-69
2021/01/15 10:50:15;;;;;;;;;;;;;;;;;;5010620;28;20020;-71
2021/01/15 10:52:42;;;;;;;;;;;;;;;;;;5008340;28;20384;-70
2021/01/15 10:55:08;;;;;;;;;;;;;;;;;;5011221;28;19932;-69
2021/01/15 10:57:36;;;;;;;;;;;;;;;;;;5011583;28;19932;-68
2021/01/15 11:00:03;;;;;;;;;;;;;;;;;;5011114;28;19980;-69
2021/01/15 11:02:29;;;;;;;;;;;;;;;;;;5011818;28;19964;-68
2021/01/15 11:04:56;;;;;;;;;;;;;;;;;;5006848;28;20395;-68
2021/01/15 11:07:22;;;;;;;;;;;;;;;;;;5008668;28;19936;-68
2021/01/15 11:09:49;;;;;;;;;;;;;;;;;;5011555;28;20467;-70
2021/01/15 11:12:15;;;;;;;;;;;;;;;;;;5010805;28;19932;-69
2021/01/15 11:14:41;;;;;;;;;;;;;;;;;;5011356;28;20020;-69
2021/01/15 11:17:08;;;;;;;;;;;;;;;;;;5009803;28;20361;-69
2021/01/15 11:19:34;;;;;;;;;;;;;;;;;;5013379;28;19929;-70
2021/01/15 11:22:01;;;;;;;;;;;;;;;;;;5010299;28;19931;-69
2021/01/15 11:24:27;;;;;;;;;;;;;;;;;;5011915;28;19971;-67
2021/01/15 11:26:54;;;;;;;;;;;;;;;;;;5010316;28;20448;-68
2021/01/15 11:29:20;;;;;;;;;;;;;;;;;;5012066;28;19932;-68
2021/01/15 11:31:47;;;;;;;;;;;;;;;;;;5010601;28;19980;-68
2021/01/15 11:34:15;;;;;;;;;;;;;;;;;;5009508;28;19925;-68
2021/01/15 11:36:41;;;;;;;;;;;;;;;;;;5008996;28;19926;-67
2021/01/15 11:39:08;;;;;;;;;;;;;;;;;;5014224;28;20298;-69
2021/01/15 11:41:34;;;;;;;;;;;;;;;;;;5014381;28;19926;-71
2021/01/15 11:44:01;;;;;;;;;;;;;;;;;;5012650;28;19932;-68
2021/01/15 11:46:27;;;;;;;;;;;;;;;;;;5012160;28;20346;-68
2021/01/15 11:48:54;;;;;;;;;;;;;;;;;;5010187;28;19955;-69
2021/01/15 11:51:20;;;;;;;;;;;;;;;;;;5013897;28;19930;-69
2021/01/15 11:53:46;;;;;;;;;;;;;;;;;;5013759;28;19926;-69
2021/01/15 11:56:13;;;;;;;;;;;;;;;;;;5012490;28;19965;-69
2021/01/15 11:58:39;;;;;;;;;;;;;;;;;;5012763;28;20021;-69
2021/01/15 12:01:06;;;;;;;;;;;;;;;;;;5011856;28;20396;-73
2021/01/15 12:03:32;;;;;;;;;;;;;;;;;;5011652;28;20376;-69
2021/01/15 12:05:59;;;;;;;;;;;;;;;;;;5008879;28;20023;-70
2021/01/15 12:08:25;;;;;;;;;;;;;;;;;;5011666;28;19926;-69
2021/01/15 12:10:52;;;;;;;;;;;;;;;;;;5012953;28;19991;-69
2021/01/15 12:13:18;;;;;;;;;;;;;;;;;;5013366;28;20003;-70
2021/01/15 12:15:45;;;;;;;;;;;;;;;;;;5012554;28;19933;-71
2021/01/15 12:18:11;;;;;;;;;;;;;;;;;;5010261;28;19925;-71
2021/01/15 12:20:38;;;;;;;;;;;;;;;;;;5015145;28;20399;-71
2021/01/15 12:23:04;;;;;;;;;;;;;;;;;;5013253;28;19971;-71
2021/01/15 12:25:31;;;;;;;;;;;;;;;;;;5012162;28;20155;-69
2021/01/15 12:27:57;;;;;;;;;;;;;;;;;;5010543;28;20020;-70
2021/01/15 12:30:24;;;;;;;;;;;;;;;;;;5011716;28;19972;-70
2021/01/15 12:32:50;;;;;;;;;;;;;;;;;;5014500;28;19933;-70
2021/01/15 12:35:17;;;;;;;;;;;;;;;;;;5011280;28;19925;-70
2021/01/15 12:37:43;;;;;;;;;;;;;;;;;;5008444;28;20454;-70
2021/01/15 12:40:10;;;;;;;;;;;;;;;;;;5007343;28;19971;-70
2021/01/15 12:42:36;;;;;;;;;;;;;;;;;;5012052;28;19940;-71
2021/01/15 12:45:03;;;;;;;;;;;;;;;;;;5011707;28;19930;-71
2021/01/15 12:47:29;;;;;;;;;;;;;;;;;;5010254;28;19932;-71
2021/01/15 12:49:56;;;;;;;;;;;;;;;;;;5009904;28;19926;-72
2021/01/15 12:52:22;;;;;;;;;;;;;;;;;;5008441;28;20395;-69
2021/01/15 12:54:49;;;;;;;;;;;;;;;;;;5011759;28;19965;-69
2021/01/15 12:57:15;;;;;;;;;;;;;;;;;;5009139;28;20020;-69
2021/01/15 12:59:42;;;;;;;;;;;;;;;;;;5010309;28;19925;-70
2021/01/15 13:02:08;;;;;;;;;;;;;;;;;;5012150;28;19934;-69
2021/01/15 13:04:34;;;;;;;;;;;;;;;;;;5020670;28;20020;-72
2021/01/15 13:07:01;;;;;;;;;;;;;;;;;;5008070;28;19926;-72
2021/01/15 13:09:27;;;;;;;;;;;;;;;;;;5011406;28;20023;-70
2021/01/15 13:11:54;;;;;;;;;;;;;;;;;;5008526;28;19934;-70
2021/01/15 13:14:20;;;;;;;;;;;;;;;;;;5010664;28;19929;-71
2021/01/15 13:16:47;;;;;;;;;;;;;;;;;;5010513;28;19947;-72
2021/01/15 13:19:13;;;;;;;;;;;;;;;;;;5011873;28;20346;-70
2021/01/15 13:21:40;;;;;;;;;;;;;;;;;;5012602;28;19964;-70
2021/01/15 13:24:06;;;;;;;;;;;;;;;;;;5010843;28;19925;-69
2021/01/15 13:26:33;;;;;;;;;;;;;;;;;;5010208;28;20355;-69
2021/01/15 13:28:59;;;;;;;;;;;;;;;;;;5011620;28;19925;-69
2021/01/15 13:31:26;;;;;;;;;;;;;;;;;;5012726;28;19932;-69
2021/01/15 13:33:52;;;;;;;;;;;;;;;;;;5011917;28;20040;-69
2021/01/15 13:36:19;;;;;;;;;;;;;;;;;;5010665;28;19925;-70
2021/01/15 13:38:45;;;;;;;;;;;;;;;;;;5011429;28;19926;-69
2021/01/15 13:41:11;;;;;;;;;;;;;;;;;;5010018;28;20391;-70
2021/01/15 13:43:38;;;;;;;;;;;;;;;;;;5012001;28;19925;-69
2021/01/15 13:46:04;;;;;;;;;;;;;;;;;;5010595;28;20189;-70
2021/01/15 13:48:35;;;;;;;;;;;;;;;;;;5011659;28;19925;-70
2021/01/15 13:51:05;;;;;;;;;;;;;;;;;;5009415;28;19957;-69
2021/01/15 13:53:31;;;;;;;;;;;;;;;;;;5011521;28;20315;-68
2021/01/15 13:55:58;;;;;;;;;;;;;;;;;;5009920;28;19934;-69
2021/01/15 13:58:24;;;;;;;;;;;;;;;;;;5004453;28;20024;-70
2021/01/15 14:00:51;;;;;;;;;;;;;;;;;;5010875;28;19926;-71
2021/01/15 14:03:17;;;;;;;;;;;;;;;;;;5006707;28;19931;-70
2021/01/15 14:05:44;;;;;;;;;;;;;;;;;;5009989;28;19956;-70
2021/01/15 14:08:10;;;;;;;;;;;;;;;;;;5008903;28;19931;-69
2021/01/15 14:10:37;;;;;;;;;;;;;;;;;;5011174;28;19933;-69
2021/01/15 14:13:03;;;;;;;;;;;;;;;;;;5010904;28;19982;-69
2021/01/15 14:15:30;;;;;;;;;;;;;;;;;;5010772;28;20020;-69
2021/01/15 14:17:56;;;;;;;;;;;;;;;;;;5011287;28;19925;-69
2021/01/15 14:20:23;;;;;;;;;;;;;;;;;;5011282;28;19971;-69
2021/01/15 14:22:49;;;;;;;;;;;;;;;;;;5011101;28;19925;-70
2021/01/15 14:25:16;;;;;;;;;;;;;;;;;;5009798;28;20320;-70
2021/01/15 14:27:42;;;;;;;;;;;;;;;;;;5013304;28;20410;-70
2021/01/15 14:30:08;;;;;;;;;;;;;;;;;;5010201;28;19929;-70
2021/01/15 14:32:35;;;;;;;;;;;;;;;;;;5015257;28;19932;-69
2021/01/15 14:35:01;;;;;;;;;;;;;;;;;;5011637;28;19963;-69
2021/01/15 14:37:28;;;;;;;;;;;;;;;;;;5005070;28;20044;-69
2021/01/15 14:39:54;;;;;;;;;;;;;;;;;;5005467;28;19932;-69
2021/01/15 14:42:21;;;;;;;;;;;;;;;;;;5007469;28;19940;-69
2021/01/15 14:44:47;;;;;;;;;;;;;;;;;;5012097;28;19925;-69
2021/01/15 14:47:14;;;;;;;;;;;;;;;;;;5009536;28;19925;-72
2021/01/15 14:49:40;;;;;;;;;;;;;;;;;;5012303;28;19926;-71
2021/01/15 14:52:06;;;;;;;;;;;;;;;;;;5007884;28;19925;-70
2021/01/15 14:54:33;;;;;;;;;;;;;;;;;;5011312;28;19925;-70
2021/01/15 14:56:59;;;;;;;;;;;;;;;;;;5010349;28;20354;-70
2021/01/15 14:59:26;;;;;;;;;;;;;;;;;;5016998;28;20290;-70
2021/01/15 15:01:53;;;;;;;;;;;;;;;;;;5012816;28;19930;-69
2021/01/15 15:04:19;;;;;;;;;;;;;;;;;;5010952;28;20387;-69
2021/01/15 15:06:46;;;;;;;;;;;;;;;;;;5006701;28;19929;-69
2021/01/15 15:09:13;;;;;;;;;;;;;;;;;;5005297;28;19956;-69
2021/01/15 15:11:39;;;;;;;;;;;;;;;;;;5010954;28;19925;-70
2021/01/15 15:14:06;;;;;;;;;;;;;;;;;;5010212;28;19929;-70
2021/01/15 15:16:32;;;;;;;;;;;;;;;;;;5007781;28;19936;-70
2021/01/15 15:18:59;;;;;;;;;;;;;;;;;;5010390;28;20306;-70
2021/01/15 15:21:25;;;;;;;;;;;;;;;;;;5010584;28;19929;-71
2021/01/15 15:23:52;;;;;;;;;;;;;;;;;;5008216;28;19930;-70
2021/01/15 15:26:18;;;;;;;;;;;;;;;;;;5009616;28;19971;-70
2021/01/15 15:28:46;;;;;;;;;;;;;;;;;;5009177;28;20322;-70
2021/01/15 15:31:12;;;;;;;;;;;;;;;;;;5006859;28;20315;-69
2021/01/15 15:33:40;;;;;;;;;;;;;;;;;;5012012;28;19999;-68
2021/01/15 15:36:08;;;;;;;;;;;;;;;;;;5007404;28;20417;-68
2021/01/15 15:38:34;;;;;;;;;;;;;;;;;;5009064;28;20008;-69
2021/01/15 15:41:01;;;;;;;;;;;;;;;;;;5011479;28;19925;-68
2021/01/15 15:43:32;;;;;;;;;;;;;;;;;;5010278;28;19925;-69
2021/01/15 15:45:58;;;;;;;;;;;;;;;;;;5010067;28;19957;-67
2021/01/15 15:48:25;;;;;;;;;;;;;;;;;;5010852;28;19925;-69
2021/01/15 15:50:51;;;;;;;;;;;;;;;;;;5011205;28;20079;-67
2021/01/15 15:53:18;;;;;;;;;;;;;;;;;;5009096;28;20306;-69
2021/01/15 15:55:44;;;;;;;;;;;;;;;;;;5012764;28;19925;-68
2021/01/15 15:58:11;;;;;;;;;;;;;;;;;;5008180;28;20323;-68
2021/01/15 16:00:38;;;;;;;;;;;;;;;;;;5010484;28;20024;-68
2021/01/15 16:03:04;;;;;;;;;;;;;;;;;;5010734;28;19925;-68
2021/01/15 16:05:31;;;;;;;;;;;;;;;;;;5011099;28;20024;-68
2021/01/15 16:07:58;;;;;;;;;;;;;;;;;;5010326;28;19933;-68
2021/01/15 16:10:24;;;;;;;;;;;;;;;;;;5011916;28;19931;-69
2021/01/15 16:12:51;;;;;;;;;;;;;;;;;;5012110;28;19926;-69
2021/01/15 16:15:18;;;;;;;;;;;;;;;;;;5011309;28;19972;-69
2021/01/15 16:17:44;;;;;;;;;;;;;;;;;;5010192;28;19925;-70
2021/01/15 16:20:10;;;;;;;;;;;;;;;;;;5007862;28;19925;-69
2021/01/15 16:22:37;;;;;;;;;;;;;;;;;;5013122;28;19925;-70
2021/01/15 16:25:03;;;;;;;;;;;;;;;;;;5013847;28;19965;-70
2021/01/15 16:27:30;;;;;;;;;;;;;;;;;;5014562;28;19992;-70
2021/01/15 16:29:56;;;;;;;;;;;;;;;;;;5013171;28;19969;-70
2021/01/15 16:32:23;;;;;;;;;;;;;;;;;;5013467;28;20455;-71
2021/01/15 16:34:49;;;;;;;;;;;;;;;;;;5014460;28;19953;-70
2021/01/15 16:37:16;;;;;;;;;;;;;;;;;;5013690;28;20004;-70
2021/01/15 16:39:42;;;;;;;;;;;;;;;;;;5013322;28;20375;-69